createdAt,value
2018-09-25T00:00:29.448Z,7.87
2018-09-25T00:01:29.441Z,7.91
2018-09-25T00:02:29.433Z,7.90
2018-09-25T00:03:29.428Z,7.93
2018-09-25T00:04:29.420Z,7.90
2018-09-25T00:05:29.414Z,7.80
2018-09-25T00:06:29.406Z,7.85
2018-09-25T00:07:29.401Z,7.91
2018-09-25T00:08:29.394Z,7.95
2018-09-25T00:09:29.387Z,7.97
2018-09-25T00:10:29.381Z,7.87
2018-09-25T00:11:29.375Z,7.91
2018-09-25T00:12:29.369Z,7.94
2018-09-25T00:13:29.363Z,7.77
2018-09-25T00:14:29.356Z,7.91
2018-09-25T00:15:29.348Z,7.88
2018-09-25T00:16:29.342Z,8.01
2018-09-25T00:17:29.336Z,7.94
2018-09-25T00:18:29.330Z,7.88
2018-09-25T00:19:29.323Z,7.77
2018-09-25T00:20:29.321Z,7.70
2018-09-25T00:21:29.311Z,7.85
2018-09-25T00:22:29.304Z,7.80
2018-09-25T00:23:29.296Z,7.83
2018-09-25T00:24:29.292Z,7.82
2018-09-25T00:25:29.285Z,7.87
2018-09-25T00:26:29.277Z,7.73
2018-09-25T00:27:29.272Z,7.76
2018-09-25T00:28:29.264Z,7.66
2018-09-25T00:29:29.258Z,7.61
2018-09-25T00:30:29.251Z,7.60
2018-09-25T00:31:29.245Z,7.60
2018-09-25T00:32:29.237Z,7.61
2018-09-25T00:33:29.233Z,7.56
2018-09-25T00:34:29.224Z,7.67
2018-09-25T00:35:29.221Z,7.73
2018-09-25T00:36:29.211Z,7.61
2018-09-25T00:37:29.206Z,7.58
2018-09-25T00:38:29.198Z,7.54
2018-09-25T00:39:29.193Z,7.61
2018-09-25T00:40:29.186Z,7.57
2018-09-25T00:41:29.180Z,7.54
2018-09-25T00:42:29.172Z,7.50
2018-09-25T00:43:29.166Z,7.48
2018-09-25T00:44:29.160Z,7.56
2018-09-25T00:45:29.153Z,7.51
2018-09-25T00:46:29.145Z,7.47
2018-09-25T00:47:29.138Z,7.40
2018-09-25T00:48:29.137Z,7.60
2018-09-25T00:49:29.126Z,7.58
2018-09-25T00:50:29.119Z,7.60
2018-09-25T00:51:29.112Z,7.57
2018-09-25T00:52:29.105Z,7.72
2018-09-25T00:53:29.099Z,7.70
2018-09-25T00:54:29.095Z,7.75
2018-09-25T00:55:29.086Z,7.82
2018-09-25T00:56:29.080Z,7.79
2018-09-25T00:57:29.073Z,7.73
2018-09-25T00:58:29.065Z,7.76
2018-09-25T00:59:29.059Z,7.69
2018-09-25T01:00:29.059Z,7.60
2018-09-25T01:01:29.047Z,7.67
2018-09-25T01:02:29.038Z,7.57
2018-09-25T01:03:29.032Z,7.58
2018-09-25T01:04:29.028Z,7.61
2018-09-25T01:05:29.020Z,7.61
2018-09-25T01:06:29.012Z,7.56
2018-09-25T01:07:29.006Z,7.57
2018-09-25T01:08:28.998Z,7.54
2018-09-25T01:09:28.992Z,7.58
2018-09-25T01:10:28.984Z,7.58
2018-09-25T01:11:28.978Z,7.60
2018-09-25T01:12:28.971Z,7.57
2018-09-25T01:13:28.967Z,7.72
2018-09-25T01:14:28.957Z,7.76
2018-09-25T01:15:28.952Z,7.77
2018-09-25T01:16:28.944Z,7.57
2018-09-25T01:17:28.941Z,7.54
2018-09-25T01:18:28.932Z,7.47
2018-09-25T01:19:28.932Z,7.42
2018-09-25T01:20:28.919Z,7.43
2018-09-25T01:21:28.914Z,7.40
2018-09-25T01:22:28.904Z,7.51
2018-09-25T01:23:28.898Z,7.57
2018-09-25T01:24:28.891Z,7.57
2018-09-25T01:25:28.885Z,7.54
2018-09-25T01:26:28.876Z,7.60
2018-09-25T01:27:28.870Z,7.61
2018-09-25T01:28:28.863Z,7.72
2018-09-25T01:29:28.858Z,7.63
2018-09-25T01:30:28.849Z,7.60
2018-09-25T01:31:28.842Z,7.54
2018-09-25T01:32:28.837Z,7.60
2018-09-25T01:33:28.831Z,7.60
2018-09-25T01:34:28.824Z,7.60
2018-09-25T01:35:28.815Z,7.54
2018-09-25T01:36:28.813Z,7.57
2018-09-25T01:37:28.803Z,7.56
2018-09-25T01:38:28.795Z,7.50
2018-09-25T01:39:28.788Z,7.40
2018-09-25T01:40:28.781Z,7.51
2018-09-25T01:41:28.775Z,7.57
2018-09-25T01:42:28.768Z,7.47
2018-09-25T01:43:28.762Z,7.40
2018-09-25T01:44:28.753Z,7.42
2018-09-25T01:45:28.747Z,7.42
2018-09-25T01:46:28.740Z,7.53
2018-09-25T01:47:28.733Z,7.48
2018-09-25T01:48:28.727Z,7.53
2018-09-25T01:49:28.721Z,7.43
2018-09-25T01:50:28.719Z,7.40
2018-09-25T01:51:28.707Z,7.43
2018-09-25T01:52:28.700Z,7.42
2018-09-25T01:53:28.694Z,7.29
2018-09-25T01:54:28.686Z,7.24
2018-09-25T01:55:28.680Z,7.23
2018-09-25T01:56:28.673Z,7.21
2018-09-25T01:57:28.666Z,7.13
2018-09-25T01:58:28.658Z,7.13
2018-09-25T01:59:28.652Z,7.21
2018-09-25T02:00:28.646Z,7.21
2018-09-25T02:01:28.639Z,7.14
2018-09-25T02:02:28.632Z,7.06
2018-09-25T02:03:28.625Z,7.23
2018-09-25T02:04:28.617Z,7.32
2018-09-25T02:05:28.612Z,7.35
2018-09-25T02:06:28.605Z,7.40
2018-09-25T02:07:28.599Z,7.36
2018-09-25T02:08:28.591Z,7.32
2018-09-25T02:09:28.586Z,7.21
2018-09-25T02:10:28.577Z,7.25
2018-09-25T02:11:28.569Z,7.32
2018-09-25T02:12:28.564Z,7.20
2018-09-25T02:13:28.556Z,7.28
2018-09-25T02:14:28.550Z,7.33
2018-09-25T02:15:28.546Z,7.23
2018-09-25T02:16:28.537Z,7.40
2018-09-25T02:17:28.529Z,7.40
2018-09-25T02:18:28.522Z,7.38
2018-09-25T02:19:28.515Z,7.21
2018-09-25T02:20:28.509Z,7.29
2018-09-25T02:21:28.501Z,7.38
2018-09-25T02:22:28.501Z,7.40
2018-09-25T02:23:28.487Z,7.31
2018-09-25T02:24:28.480Z,7.45
2018-09-25T02:25:28.473Z,7.36
2018-09-25T02:26:28.466Z,7.38
2018-09-25T02:27:28.458Z,7.42
2018-09-25T02:28:28.452Z,7.33
2018-09-25T02:29:28.445Z,7.35
2018-09-25T02:30:28.438Z,7.43
2018-09-25T02:31:28.430Z,7.53
2018-09-25T02:32:28.423Z,7.57
2018-09-25T02:33:28.418Z,7.54
2018-09-25T02:34:28.411Z,7.61
2018-09-25T02:35:28.406Z,7.54
2018-09-25T02:36:28.396Z,7.56
2018-09-25T02:37:28.391Z,7.54
2018-09-25T02:38:28.381Z,7.69
2018-09-25T02:39:28.375Z,7.63
2018-09-25T02:40:28.369Z,7.75
2018-09-25T02:41:28.363Z,7.57
2018-09-25T02:42:28.354Z,7.60
2018-09-25T02:43:28.346Z,7.69
2018-09-25T02:44:28.341Z,7.75
2018-09-25T02:45:28.335Z,7.75
2018-09-25T02:46:28.326Z,7.72
2018-09-25T02:47:28.319Z,7.67
2018-09-25T02:48:28.313Z,7.79
2018-09-25T02:49:28.306Z,7.73
2018-09-25T02:50:28.298Z,7.70
2018-09-25T02:51:28.292Z,7.57
2018-09-25T02:52:28.286Z,7.54
2018-09-25T02:53:28.278Z,7.56
2018-09-25T02:54:28.272Z,7.45
2018-09-25T02:55:28.265Z,7.42
2018-09-25T02:56:28.258Z,7.33
2018-09-25T02:57:28.251Z,7.24
2018-09-25T02:58:28.243Z,7.24
2018-09-25T02:59:28.237Z,7.23
2018-09-25T03:00:28.238Z,7.21
2018-09-25T03:01:28.223Z,7.29
2018-09-25T03:02:28.221Z,7.39
2018-09-25T03:03:28.210Z,7.36
2018-09-25T03:04:28.203Z,7.31
2018-09-25T03:05:28.198Z,7.25
2018-09-25T03:06:28.188Z,7.23
2018-09-25T03:07:28.184Z,7.29
2018-09-25T03:08:28.174Z,7.23
2018-09-25T03:09:28.167Z,7.15
2018-09-25T03:10:28.160Z,7.23
2018-09-25T03:11:28.155Z,7.18
2018-09-25T03:12:28.146Z,7.15
2018-09-25T03:13:28.140Z,7.21
2018-09-25T03:14:28.132Z,7.18
2018-09-25T03:15:28.125Z,7.21
2018-09-25T03:16:28.123Z,7.20
2018-09-25T03:17:28.112Z,7.17
2018-09-25T03:18:28.105Z,7.21
2018-09-25T03:19:28.176Z,7.20
2018-09-25T03:20:28.133Z,7.21
2018-09-25T03:21:28.083Z,7.21
2018-09-25T03:22:28.077Z,7.21
2018-09-25T03:23:28.070Z,7.20
2018-09-25T03:24:28.065Z,7.17
2018-09-25T03:25:28.056Z,7.17
2018-09-25T03:26:28.049Z,7.15
2018-09-25T03:27:28.042Z,7.21
2018-09-25T03:28:28.034Z,7.18
2018-09-25T03:29:28.027Z,7.24
2018-09-25T03:30:28.021Z,7.25
2018-09-25T03:31:28.014Z,7.23
2018-09-25T03:32:28.010Z,7.23
2018-09-25T03:33:28.000Z,7.23
2018-09-25T03:34:27.993Z,7.25
2018-09-25T03:35:27.985Z,7.20
2018-09-25T03:36:27.977Z,7.28
2018-09-25T03:37:27.971Z,7.24
2018-09-25T03:38:27.963Z,7.31
2018-09-25T03:39:27.958Z,7.21
2018-09-25T03:40:27.950Z,7.23
2018-09-25T03:41:27.943Z,7.24
2018-09-25T03:42:27.935Z,7.29
2018-09-25T03:43:27.930Z,7.40
2018-09-25T03:44:27.921Z,7.36
2018-09-25T03:45:27.915Z,7.36
2018-09-25T03:46:27.908Z,7.40
2018-09-25T03:47:27.899Z,7.36
2018-09-25T03:48:27.893Z,7.31
2018-09-25T03:49:27.885Z,7.21
2018-09-25T03:50:27.877Z,7.24
2018-09-25T03:51:27.872Z,7.20
2018-09-25T03:52:27.864Z,7.23
2018-09-25T03:53:27.858Z,7.20
2018-09-25T03:54:27.849Z,7.24
2018-09-25T03:55:27.843Z,7.15
2018-09-25T03:56:27.835Z,7.29
2018-09-25T03:57:27.831Z,7.15
2018-09-25T03:58:27.828Z,7.18
2018-09-25T03:59:27.921Z,7.23
2018-09-25T04:00:27.808Z,7.21
2018-09-25T04:01:27.801Z,7.39
2018-09-25T04:02:27.793Z,7.35
2018-09-25T04:03:27.786Z,7.40
2018-09-25T04:04:27.781Z,7.38
2018-09-25T04:05:27.774Z,7.39
2018-09-25T04:06:27.766Z,7.47
2018-09-25T04:07:27.759Z,7.50
2018-09-25T04:08:27.753Z,7.42
2018-09-25T04:09:27.745Z,7.40
2018-09-25T04:10:27.737Z,7.38
2018-09-25T04:11:27.730Z,7.42
2018-09-25T04:12:27.724Z,7.33
2018-09-25T04:13:27.720Z,7.35
2018-09-25T04:14:27.710Z,7.36
2018-09-25T04:15:27.703Z,7.28
2018-09-25T04:16:27.697Z,7.28
2018-09-25T04:17:27.689Z,7.32
2018-09-25T04:18:27.683Z,7.28
2018-09-25T04:19:27.674Z,7.36
2018-09-25T04:20:27.669Z,7.39
2018-09-25T04:21:27.663Z,7.23
2018-09-25T04:22:27.655Z,7.25
2018-09-25T04:23:27.648Z,7.21
2018-09-25T04:24:27.641Z,7.21
2018-09-25T04:25:27.633Z,7.10
2018-09-25T04:26:27.626Z,7.10
2018-09-25T04:27:27.620Z,7.11
2018-09-25T04:28:27.679Z,7.07
2018-09-25T04:29:27.607Z,7.07
2018-09-25T04:30:27.599Z,7.14
2018-09-25T04:31:27.592Z,7.17
2018-09-25T04:32:27.586Z,7.17
2018-09-25T04:33:27.579Z,7.13
2018-09-25T04:34:27.570Z,7.13
2018-09-25T04:35:27.564Z,7.10
2018-09-25T04:36:27.558Z,7.05
2018-09-25T04:37:27.551Z,7.02
2018-09-25T04:38:27.542Z,7.05
2018-09-25T04:39:27.535Z,7.03
2018-09-25T04:40:27.530Z,7.02
2018-09-25T04:41:27.523Z,7.03
2018-09-25T04:42:27.514Z,7.05
2018-09-25T04:43:27.507Z,7.05
2018-09-25T04:44:27.503Z,7.05
2018-09-25T04:45:27.495Z,6.93
2018-09-25T04:46:27.486Z,6.93
2018-09-25T04:47:27.479Z,6.89
2018-09-25T04:48:27.473Z,6.85
2018-09-25T04:49:27.466Z,6.79
2018-09-25T04:50:27.458Z,6.70
2018-09-25T04:51:27.450Z,6.69
2018-09-25T04:52:27.444Z,6.66
2018-09-25T04:53:27.437Z,6.57
2018-09-25T04:54:27.429Z,6.60
2018-09-25T04:55:27.423Z,6.60
2018-09-25T04:56:27.416Z,6.63
2018-09-25T04:57:27.409Z,6.62
2018-09-25T04:58:27.401Z,6.59
2018-09-25T04:59:27.396Z,6.51
2018-09-25T05:00:27.390Z,6.54
2018-09-25T05:01:27.384Z,6.48
2018-09-25T05:02:27.374Z,6.45
2018-09-25T05:03:27.371Z,6.38
2018-09-25T05:04:27.361Z,6.26
2018-09-25T05:05:27.352Z,6.46
2018-09-25T05:06:27.349Z,6.45
2018-09-25T05:07:27.338Z,6.41
2018-09-25T05:08:27.333Z,6.42
2018-09-25T05:09:27.325Z,6.35
2018-09-25T05:10:27.326Z,6.30
2018-09-25T05:11:27.312Z,6.27
2018-09-25T05:12:27.308Z,6.28
2018-09-25T05:13:27.297Z,6.20
2018-09-25T05:14:27.290Z,6.20
2018-09-25T05:15:27.284Z,6.14
2018-09-25T05:16:27.276Z,6.14
2018-09-25T05:17:27.269Z,6.12
2018-09-25T05:18:27.261Z,6.16
2018-09-25T05:19:27.253Z,6.11
2018-09-25T05:20:27.249Z,6.14
2018-09-25T05:21:27.241Z,6.20
2018-09-25T05:22:27.233Z,6.19
2018-09-25T05:23:27.287Z,6.11
2018-09-25T05:24:27.219Z,6.12
2018-09-25T05:25:27.212Z,6.04
2018-09-25T05:26:27.205Z,6.01
2018-09-25T05:27:27.199Z,6.02
2018-09-25T05:28:27.192Z,5.94
2018-09-25T05:29:27.183Z,6.05
2018-09-25T05:30:27.176Z,5.99
2018-09-25T05:31:27.169Z,6.12
2018-09-25T05:32:27.162Z,6.11
2018-09-25T05:33:27.155Z,6.17
2018-09-25T05:34:27.151Z,6.16
2018-09-25T05:35:27.141Z,6.14
2018-09-25T05:36:27.134Z,6.11
2018-09-25T05:37:27.127Z,6.02
2018-09-25T05:38:27.119Z,6.07
2018-09-25T05:39:27.112Z,6.02
2018-09-25T05:40:27.105Z,6.04
2018-09-25T05:41:27.097Z,6.02
2018-09-25T05:42:27.090Z,6.01
2018-09-25T05:43:27.082Z,5.94
2018-09-25T05:44:27.078Z,6.02
2018-09-25T05:45:27.068Z,5.91
2018-09-25T05:46:27.062Z,5.93
2018-09-25T05:47:27.054Z,5.99
2018-09-25T05:48:27.065Z,5.97
2018-09-25T05:49:27.043Z,5.99
2018-09-25T05:50:27.034Z,5.90
2018-09-25T05:51:27.024Z,5.90
2018-09-25T05:52:27.018Z,5.93
2018-09-25T05:53:27.011Z,5.91
2018-09-25T05:54:27.004Z,5.76
2018-09-25T05:55:27.060Z,5.86
2018-09-25T05:56:26.991Z,5.87
2018-09-25T05:57:26.982Z,5.87
2018-09-25T05:58:26.975Z,5.84
2018-09-25T05:59:26.969Z,5.89
2018-09-25T06:00:26.962Z,5.87
2018-09-25T06:01:26.954Z,5.97
2018-09-25T06:02:26.947Z,5.94
2018-09-25T06:03:26.940Z,5.91
2018-09-25T06:04:26.932Z,5.94
2018-09-25T06:05:26.927Z,5.91
2018-09-25T06:06:26.918Z,6.05
2018-09-25T06:07:26.912Z,6.01
2018-09-25T06:08:26.907Z,6.07
2018-09-25T06:09:26.939Z,5.99
2018-09-25T06:10:26.890Z,5.98
2018-09-25T06:11:26.886Z,6.01
2018-09-25T06:12:26.877Z,5.99
2018-09-25T06:13:26.870Z,5.91
2018-09-25T06:14:26.862Z,6.04
2018-09-25T06:15:26.855Z,6.17
2018-09-25T06:16:26.849Z,6.30
2018-09-25T06:17:26.841Z,6.24
2018-09-25T06:18:26.833Z,6.24
2018-09-25T06:19:26.828Z,6.33
2018-09-25T06:20:26.825Z,6.44
2018-09-25T06:21:26.812Z,6.56
2018-09-25T06:22:26.804Z,6.74
2018-09-25T06:23:26.798Z,6.74
2018-09-25T06:24:26.791Z,6.74
2018-09-25T06:25:26.786Z,6.72
2018-09-25T06:26:26.777Z,6.66
2018-09-25T06:27:26.769Z,6.72
2018-09-25T06:28:26.768Z,6.60
2018-09-25T06:29:26.757Z,6.64
2018-09-25T06:30:26.748Z,6.63
2018-09-25T06:31:26.741Z,6.78
2018-09-25T06:32:26.735Z,6.77
2018-09-25T06:33:26.728Z,6.84
2018-09-25T06:34:26.732Z,6.81
2018-09-25T06:35:26.713Z,7.10
2018-09-25T06:36:26.705Z,7.33
2018-09-25T06:37:26.772Z,7.42
2018-09-25T06:38:26.693Z,7.70
2018-09-25T06:39:26.688Z,7.57
2018-09-25T06:40:26.679Z,7.66
2018-09-25T06:41:26.673Z,7.60
2018-09-25T06:42:26.665Z,7.66
2018-09-25T06:43:26.659Z,7.70
2018-09-25T06:44:26.653Z,7.72
2018-09-25T06:45:26.646Z,7.77
2018-09-25T06:46:26.640Z,7.90
2018-09-25T06:47:26.632Z,7.91
2018-09-25T06:48:26.629Z,8.00
2018-09-25T06:49:26.619Z,8.05
2018-09-25T06:50:26.614Z,8.00
2018-09-25T06:51:26.606Z,8.06
2018-09-25T06:52:26.599Z,8.08
2018-09-25T06:53:26.590Z,8.13
2018-09-25T06:54:26.586Z,8.31
2018-09-25T06:55:26.578Z,8.34
2018-09-25T06:56:26.572Z,8.33
2018-09-25T06:57:26.565Z,8.37
2018-09-25T06:58:26.557Z,8.44
2018-09-25T06:59:26.552Z,8.48
2018-09-25T07:00:26.547Z,8.48
2018-09-25T07:01:26.538Z,8.60
2018-09-25T07:02:26.531Z,8.63
2018-09-25T07:03:26.524Z,8.61
2018-09-25T07:04:26.519Z,8.69
2018-09-25T07:05:26.512Z,8.74
2018-09-25T07:06:26.506Z,8.81
2018-09-25T07:07:26.498Z,8.79
2018-09-25T07:08:26.492Z,8.78
2018-09-25T07:09:26.487Z,8.87
2018-09-25T07:10:26.575Z,8.88
2018-09-25T07:11:26.472Z,9.02
2018-09-25T07:12:26.467Z,9.10
2018-09-25T07:13:26.460Z,8.97
2018-09-25T07:14:26.454Z,9.06
2018-09-25T07:15:26.447Z,9.14
2018-09-25T07:16:26.445Z,9.14
2018-09-25T07:17:26.443Z,9.21
2018-09-25T07:18:26.429Z,9.18
2018-09-25T07:19:26.423Z,9.18
2018-09-25T07:20:26.425Z,9.22
2018-09-25T07:21:26.410Z,9.22
2018-09-25T07:22:26.403Z,9.29
2018-09-25T07:23:26.398Z,9.34
2018-09-25T07:24:26.403Z,9.43
2018-09-25T07:25:26.385Z,9.41
2018-09-25T07:26:26.379Z,9.50
2018-09-25T07:27:26.372Z,9.51
2018-09-25T07:28:26.368Z,9.61
2018-09-25T07:29:26.361Z,9.64
2018-09-25T07:30:26.363Z,9.65
2018-09-25T07:31:26.349Z,9.84
2018-09-25T07:32:26.342Z,9.94
2018-09-25T07:33:26.338Z,10.13
2018-09-25T07:34:26.331Z,10.23
2018-09-25T07:35:26.325Z,10.30
2018-09-25T07:36:26.319Z,10.23
2018-09-25T07:37:26.312Z,10.33
2018-09-25T07:38:26.305Z,10.30
2018-09-25T07:39:26.300Z,10.31
2018-09-25T07:40:26.296Z,10.46
2018-09-25T07:41:26.290Z,10.51
2018-09-25T07:42:26.283Z,10.63
2018-09-25T07:43:26.279Z,10.76
2018-09-25T07:44:26.272Z,10.72
2018-09-25T07:45:26.269Z,10.69
2018-09-25T07:46:26.260Z,10.78
2018-09-25T07:47:26.258Z,10.72
2018-09-25T07:48:26.257Z,10.82
2018-09-25T07:49:26.243Z,10.93
2018-09-25T07:50:26.237Z,11.00
2018-09-25T07:51:26.231Z,11.04
2018-09-25T07:52:26.226Z,10.99
2018-09-25T07:53:26.222Z,11.07
2018-09-25T07:54:26.215Z,11.08
2018-09-25T07:55:26.233Z,11.04
2018-09-25T07:56:26.205Z,11.14
2018-09-25T07:57:26.199Z,11.15
2018-09-25T07:58:26.193Z,11.08
2018-09-25T07:59:26.187Z,11.23
2018-09-25T08:00:26.184Z,11.30
2018-09-25T08:01:26.176Z,11.23
2018-09-25T08:02:26.171Z,11.23
2018-09-25T08:03:26.170Z,11.26
2018-09-25T08:04:26.161Z,11.36
2018-09-25T08:05:26.156Z,11.44
2018-09-25T08:06:26.150Z,11.44
2018-09-25T08:07:26.144Z,11.35
2018-09-25T08:08:26.139Z,11.41
2018-09-25T08:09:26.139Z,11.33
2018-09-25T08:10:26.130Z,11.37
2018-09-25T08:11:26.124Z,11.48
2018-09-25T08:12:26.122Z,11.60
2018-09-25T08:13:26.115Z,11.62
2018-09-25T08:14:26.112Z,11.62
2018-09-25T08:15:26.161Z,11.62
2018-09-25T08:16:26.100Z,11.69
2018-09-25T08:17:26.095Z,11.70
2018-09-25T08:18:26.088Z,11.77
2018-09-25T08:19:26.084Z,11.84
2018-09-25T08:20:26.078Z,11.84
2018-09-25T08:21:26.075Z,11.87
2018-09-25T08:22:26.068Z,11.86
2018-09-25T08:23:26.064Z,11.97
2018-09-25T08:24:26.059Z,11.90
2018-09-25T08:25:26.055Z,12.03
2018-09-25T08:26:26.050Z,11.97
2018-09-25T08:27:26.044Z,12.02
2018-09-25T08:28:26.040Z,12.00
2018-09-25T08:29:26.036Z,12.00
2018-09-25T08:30:26.031Z,12.13
2018-09-25T08:31:26.026Z,12.20
2018-09-25T08:32:26.022Z,12.28
2018-09-25T08:33:26.017Z,12.29
2018-09-25T08:34:26.011Z,12.42
2018-09-25T08:35:26.006Z,12.46
2018-09-25T08:36:26.002Z,12.42
2018-09-25T08:37:25.997Z,12.54
2018-09-25T08:38:26.005Z,12.53
2018-09-25T08:39:26.083Z,12.43
2018-09-25T08:40:25.984Z,12.58
2018-09-25T08:41:25.979Z,12.54
2018-09-25T08:42:25.976Z,12.53
2018-09-25T08:43:25.969Z,12.58
2018-09-25T08:44:25.966Z,12.58
2018-09-25T08:45:25.961Z,12.67
2018-09-25T08:46:25.957Z,12.64
2018-09-25T08:47:25.953Z,12.67
2018-09-25T08:48:25.949Z,12.64
2018-09-25T08:49:25.944Z,12.79
2018-09-25T08:50:25.939Z,12.78
2018-09-25T08:51:25.934Z,12.76
2018-09-25T08:52:25.930Z,12.82
2018-09-25T08:53:25.975Z,12.95
2018-09-25T08:54:25.923Z,13.15
2018-09-25T08:55:25.919Z,13.16
2018-09-25T08:56:25.913Z,13.35
2018-09-25T08:57:25.910Z,13.62
2018-09-25T08:58:25.906Z,13.99
2018-09-25T08:59:25.904Z,14.77
2018-09-25T09:00:25.900Z,15.86
2018-09-25T09:01:25.897Z,16.83
2018-09-25T09:02:25.894Z,17.74
2018-09-25T09:03:25.894Z,18.58
2018-09-25T09:04:25.892Z,19.00
2018-09-25T09:05:25.891Z,19.02
2018-09-25T09:06:25.892Z,19.55
2018-09-25T09:07:25.892Z,19.62
2018-09-25T09:08:25.931Z,19.86
2018-09-25T09:09:25.895Z,19.71
2018-09-25T09:10:25.895Z,19.85
2018-09-25T09:11:25.899Z,20.13
2018-09-25T09:12:25.901Z,20.70
2018-09-25T09:13:25.905Z,20.22
2018-09-25T09:14:25.909Z,19.94
2018-09-25T09:15:25.914Z,20.24
2018-09-25T09:16:25.918Z,19.70
2018-09-25T09:17:25.925Z,19.77
2018-09-25T09:18:25.929Z,19.74
2018-09-25T09:19:25.937Z,19.91
2018-09-25T09:20:25.940Z,20.16
2018-09-25T09:21:25.946Z,19.79
2018-09-25T09:22:25.954Z,19.45
2018-09-25T09:23:25.958Z,18.66
2018-09-25T09:24:25.964Z,18.78
2018-09-25T09:25:25.973Z,19.02
2018-09-25T09:26:25.980Z,19.18
2018-09-25T09:27:25.986Z,19.89
2018-09-25T09:28:25.994Z,20.41
2018-09-25T09:29:26.001Z,20.65
2018-09-25T09:30:26.009Z,20.52
2018-09-25T09:31:26.018Z,20.39
2018-09-25T09:32:26.033Z,20.72
2018-09-25T09:33:26.034Z,20.90
2018-09-25T09:34:26.044Z,20.87
2018-09-25T09:35:26.051Z,21.02
2018-09-25T09:36:26.059Z,21.22
2018-09-25T09:37:26.068Z,21.61
2018-09-25T09:38:26.076Z,21.46
2018-09-25T09:39:26.085Z,21.58
2018-09-25T09:40:26.097Z,21.66
2018-09-25T09:41:26.183Z,21.18
2018-09-25T09:42:26.113Z,20.50
2018-09-25T09:43:26.127Z,20.95
2018-09-25T09:44:26.134Z,20.22
2018-09-25T09:45:26.147Z,20.44
2018-09-25T09:46:26.154Z,19.96
2018-09-25T09:47:26.164Z,20.21
2018-09-25T09:48:26.173Z,20.25
2018-09-25T09:49:26.184Z,19.71
2018-09-25T09:50:26.204Z,18.90
2018-09-25T09:51:26.202Z,18.41
2018-09-25T09:52:26.213Z,17.44
2018-09-25T09:53:26.225Z,16.97
2018-09-25T09:54:26.232Z,17.23
2018-09-25T09:55:26.240Z,18.49
2018-09-25T09:56:26.304Z,19.39
2018-09-25T09:57:26.259Z,20.04
2018-09-25T09:58:26.266Z,20.55
2018-09-25T09:59:26.275Z,20.82
2018-09-25T10:00:26.283Z,19.69
2018-09-25T10:01:26.293Z,18.52
2018-09-25T10:02:26.300Z,17.56
2018-09-25T10:03:26.310Z,16.94
2018-09-25T10:04:26.319Z,16.53
2018-09-25T10:05:26.326Z,16.15
2018-09-25T10:06:26.332Z,15.59
2018-09-25T10:07:26.340Z,15.61
2018-09-25T10:08:26.348Z,15.43
2018-09-25T10:09:26.356Z,15.37
2018-09-25T10:10:26.362Z,15.15
2018-09-25T10:11:26.368Z,15.02
2018-09-25T10:12:26.425Z,14.89
2018-09-25T10:13:26.383Z,14.92
2018-09-25T10:14:26.385Z,14.89
2018-09-25T10:15:26.391Z,14.97
2018-09-25T10:16:26.396Z,14.89
2018-09-25T10:17:26.402Z,14.97
2018-09-25T10:18:26.404Z,14.96
2018-09-25T10:19:26.409Z,14.96
2018-09-25T10:20:26.414Z,14.91
2018-09-25T10:21:26.417Z,14.77
2018-09-25T10:22:26.421Z,14.94
2018-09-25T10:23:26.423Z,15.72
2018-09-25T10:24:26.427Z,17.36
2018-09-25T10:25:26.431Z,18.68
2018-09-25T10:26:26.431Z,19.67
2018-09-25T10:27:26.509Z,20.41
2018-09-25T10:28:26.441Z,20.65
2018-09-25T10:29:26.444Z,19.81
2018-09-25T10:30:26.447Z,18.73
2018-09-25T10:31:26.451Z,18.01
2018-09-25T10:32:26.456Z,17.85
2018-09-25T10:33:26.459Z,17.98
2018-09-25T10:34:26.462Z,18.44
2018-09-25T10:35:26.468Z,17.89
2018-09-25T10:36:26.472Z,17.79
2018-09-25T10:37:26.477Z,17.78
2018-09-25T10:38:26.479Z,17.05
2018-09-25T10:39:26.482Z,16.75
2018-09-25T10:40:26.486Z,16.47
2018-09-25T10:41:26.490Z,16.42
2018-09-25T10:42:26.493Z,16.23
2018-09-25T10:43:26.496Z,16.01
2018-09-25T10:44:26.499Z,15.76
2018-09-25T10:45:26.504Z,15.97
2018-09-25T10:46:26.507Z,15.97
2018-09-25T10:47:26.511Z,15.82
2018-09-25T10:48:26.512Z,15.62
2018-09-25T10:49:26.516Z,15.39
2018-09-25T10:50:26.520Z,15.52
2018-09-25T10:51:26.520Z,15.55
2018-09-25T10:52:26.525Z,15.62
2018-09-25T10:53:26.527Z,15.73
2018-09-25T10:54:26.528Z,15.82
2018-09-25T10:55:26.581Z,15.94
2018-09-25T10:56:26.533Z,16.10
2018-09-25T10:57:26.537Z,16.09
2018-09-25T10:58:26.538Z,16.13
2018-09-25T10:59:26.540Z,16.15
2018-09-25T11:00:26.543Z,16.47
2018-09-25T11:01:26.544Z,16.53
2018-09-25T11:02:26.544Z,16.57
2018-09-25T11:03:26.548Z,16.54
2018-09-25T11:04:26.550Z,16.49
2018-09-25T11:05:26.553Z,16.38
2018-09-25T11:06:26.551Z,16.51
2018-09-25T11:07:26.553Z,16.39
2018-09-25T11:08:26.555Z,16.39
2018-09-25T11:09:26.558Z,16.13
2018-09-25T11:10:26.559Z,16.15
2018-09-25T11:11:26.559Z,16.13
2018-09-25T11:12:26.562Z,16.32
2018-09-25T11:13:26.565Z,16.46
2018-09-25T11:14:26.564Z,16.47
2018-09-25T11:15:26.568Z,16.10
2018-09-25T11:16:26.568Z,16.15
2018-09-25T11:17:26.568Z,16.43
2018-09-25T11:18:26.569Z,16.17
2018-09-25T11:19:26.571Z,16.01
2018-09-25T11:20:26.572Z,15.98
2018-09-25T11:21:26.572Z,15.94
2018-09-25T11:22:26.575Z,15.95
2018-09-25T11:23:26.575Z,15.90
2018-09-25T11:24:26.577Z,16.04
2018-09-25T11:25:26.590Z,15.92
2018-09-25T11:26:26.578Z,15.92
2018-09-25T11:27:26.579Z,15.58
2018-09-25T11:28:26.580Z,15.29
2018-09-25T11:29:26.581Z,15.39
2018-09-25T11:30:26.581Z,15.28
2018-09-25T11:31:26.585Z,15.21
2018-09-25T11:32:26.584Z,15.18
2018-09-25T11:33:26.583Z,15.11
2018-09-25T11:34:26.583Z,15.06
2018-09-25T11:35:26.666Z,14.97
2018-09-25T11:36:26.584Z,14.94
2018-09-25T11:37:26.584Z,14.86
2018-09-25T11:38:26.591Z,14.81
2018-09-25T11:39:26.585Z,14.79
2018-09-25T11:40:26.586Z,14.78
2018-09-25T11:41:26.634Z,14.73
2018-09-25T11:42:26.585Z,14.70
2018-09-25T11:43:26.588Z,14.77
2018-09-25T11:44:26.586Z,14.77
2018-09-25T11:45:26.588Z,14.70
2018-09-25T11:46:26.585Z,14.85
2018-09-25T11:47:26.585Z,15.00
2018-09-25T11:48:26.587Z,15.06
2018-09-25T11:49:26.586Z,15.24
2018-09-25T11:50:26.585Z,15.35
2018-09-25T11:51:26.585Z,15.39
2018-09-25T11:52:26.584Z,15.52
2018-09-25T11:53:26.587Z,15.58
2018-09-25T11:54:26.583Z,15.59
2018-09-25T11:55:26.587Z,15.55
2018-09-25T11:56:26.652Z,15.76
2018-09-25T11:57:26.584Z,15.68
2018-09-25T11:58:26.626Z,15.79
2018-09-25T11:59:26.583Z,15.82
2018-09-25T12:00:26.583Z,15.75
2018-09-25T12:01:26.585Z,15.83
2018-09-25T12:02:26.582Z,15.79
2018-09-25T12:03:26.583Z,15.75
2018-09-25T12:04:26.648Z,15.79
2018-09-25T12:05:26.581Z,15.88
2018-09-25T12:06:26.582Z,16.02
2018-09-25T12:07:26.580Z,16.12
2018-09-25T12:08:26.580Z,16.13
2018-09-25T12:09:26.581Z,16.10
2018-09-25T12:10:26.579Z,15.97
2018-09-25T12:11:26.581Z,16.08
2018-09-25T12:12:26.579Z,16.04
2018-09-25T12:13:26.579Z,16.05
2018-09-25T12:14:26.581Z,16.04
2018-09-25T12:15:26.578Z,16.12
2018-09-25T12:16:26.578Z,16.09
2018-09-25T12:17:26.603Z,16.13
2018-09-25T12:18:26.576Z,16.17
2018-09-25T12:19:26.577Z,16.16
2018-09-25T12:20:26.623Z,16.01
2018-09-25T12:21:26.577Z,16.12
2018-09-25T12:22:26.577Z,16.15
2018-09-25T12:23:26.605Z,16.20
2018-09-25T12:24:26.646Z,16.43
2018-09-25T12:25:26.576Z,16.46
2018-09-25T12:26:26.575Z,16.47
2018-09-25T12:27:26.576Z,16.39
2018-09-25T12:28:26.579Z,16.43
2018-09-25T12:29:26.575Z,16.42
2018-09-25T12:30:26.576Z,16.28
2018-09-25T12:31:26.575Z,16.26
2018-09-25T12:32:26.589Z,16.39
2018-09-25T12:33:26.576Z,16.56
2018-09-25T12:34:26.575Z,16.58
2018-09-25T12:35:26.575Z,16.76
2018-09-25T12:36:26.576Z,17.02
2018-09-25T12:37:26.574Z,17.08
2018-09-25T12:38:26.575Z,16.99
2018-09-25T12:39:26.575Z,16.81
2018-09-25T12:40:26.575Z,16.56
2018-09-25T12:41:26.576Z,16.58
2018-09-25T12:42:26.574Z,16.47
2018-09-25T12:43:26.575Z,16.47
2018-09-25T12:44:26.578Z,16.33
2018-09-25T12:45:26.576Z,16.15
2018-09-25T12:46:26.575Z,16.15
2018-09-25T12:47:26.574Z,16.16
2018-09-25T12:48:26.577Z,16.10
2018-09-25T12:49:26.576Z,16.04
2018-09-25T12:50:26.574Z,16.15
2018-09-25T12:51:26.575Z,16.10
2018-09-25T12:52:26.598Z,16.04
2018-09-25T12:53:26.575Z,16.10
2018-09-25T12:54:26.575Z,16.00
2018-09-25T12:55:26.575Z,15.97
2018-09-25T12:56:26.575Z,16.05
2018-09-25T12:57:26.580Z,15.95
2018-09-25T12:58:26.575Z,15.91
2018-09-25T12:59:26.576Z,15.91
2018-09-25T13:00:26.576Z,15.94
2018-09-25T13:01:26.575Z,15.98
2018-09-25T13:02:26.576Z,16.10
2018-09-25T13:03:26.576Z,16.15
2018-09-25T13:04:26.577Z,16.16
2018-09-25T13:05:26.576Z,16.16
2018-09-25T13:06:26.576Z,16.15
2018-09-25T13:07:26.576Z,16.10